Snag, Canada
Current Conditions -  °F | °C
As of 9:32 PM on Wednesday 22 Oct 2014 (Local Time) from PAOR Reporting Station
Light Snow Light Snow  
Wind Chill: 19°   Ceiling: 2500
Heat Index: 27°   Visibility: 2mi
Dew Point: 25°   Wind: 7mph
Humidity: 92%   Direction: 310°NW
Pressure: 29.5"   Gusts: NA
Location:  62.38°N, 140.37°W
Report Text: PAOR 230432Z 31006KT 2SM -SN SCT006 BKN025 OVC033 M03/M04 A2950 RMK AO2 T10281039
Loading
Personal Weather Stations






























Interactive Weather Map
Tropical Storm Tracking
New forecast layout! Learn more

10-Day Weather Forecast

Advertisements
Track Severe Weather on mobile